Time;durP1;ratioP1;P1;durP2;ratioP2;P2;SDS_P1;SDS_P2;PMS_P1;PMS_P2;Temp;Humidity;BMP_temperature;BMP_pressure;BME280_temperature;BME280_humidity;BME280_pressure;Samples;Min_cycle;Max_cycle;Signal;HPM_P1;HPM_P2
2021/05/07 00:02:24;;;;;;;1999.90;999.90;;;6.40;99.90;;;;;;4950094;29;20134;-92
2021/05/07 00:04:53;;;;;;;1999.90;999.90;;;6.40;99.90;;;;;;4936729;29;20048;-94
2021/05/07 00:07:20;;;;;;;1999.90;999.90;;;6.30;99.90;;;;;;4936983;29;20075;-93
2021/05/07 00:09:48;;;;;;;1999.90;999.90;;;6.30;99.90;;;;;;4936622;29;20142;-93
2021/05/07 00:12:15;;;;;;;1999.90;999.90;;;6.30;99.90;;;;;;4936702;29;20059;-93
2021/05/07 00:14:43;;;;;;;1999.90;999.90;;;6.20;99.90;;;;;;4936865;29;20135;-92
2021/05/07 00:17:10;;;;;;;1999.90;999.90;;;6.20;99.90;;;;;;4934210;29;20067;-93
2021/05/07 00:19:37;;;;;;;1999.90;999.90;;;6.20;99.90;;;;;;4923440;29;20555;-92
2021/05/07 00:22:05;;;;;;;1999.90;999.90;;;6.10;99.90;;;;;;4921989;29;20048;-94
2021/05/07 00:24:32;;;;;;;1999.90;999.90;;;6.10;99.90;;;;;;4936544;29;20550;-93
2021/05/07 00:27:00;;;;;;;1999.90;999.90;;;6.00;99.90;;;;;;4936456;29;20079;-93
2021/05/07 00:29:29;;;;;;;1999.90;999.90;;;6.00;99.90;;;;;;4935684;29;20071;-92
2021/05/07 00:31:56;;;;;;;1999.90;999.90;;;6.10;99.90;;;;;;4936557;29;20079;-93
2021/05/07 00:34:23;;;;;;;1999.90;999.90;;;6.00;99.90;;;;;;4937683;29;20048;-92
2021/05/07 00:36:50;;;;;;;1999.90;999.90;;;5.90;99.90;;;;;;4939817;29;20087;-93
2021/05/07 00:39:17;;;;;;;1999.90;999.90;;;5.90;99.90;;;;;;4936875;29;20060;-93
2021/05/07 00:41:45;;;;;;;1999.90;999.90;;;5.90;99.90;;;;;;4939827;29;20063;-92
2021/05/07 00:44:13;;;;;;;1999.90;999.90;;;5.80;99.90;;;;;;4939601;29;20079;-93
2021/05/07 00:46:40;;;;;;;1999.90;999.90;;;5.80;99.90;;;;;;4939909;29;20138;-93
2021/05/07 00:49:07;;;;;;;1999.90;999.90;;;5.80;99.90;;;;;;4942066;29;20054;-93
2021/05/07 00:51:35;;;;;;;1999.90;999.90;;;5.80;99.90;;;;;;4944237;29;20085;-93
2021/05/07 00:54:02;;;;;;;1999.90;999.90;;;5.70;99.90;;;;;;4947540;29;20079;-94
2021/05/07 00:56:29;;;;;;;1999.90;999.90;;;5.70;99.90;;;;;;4930373;29;20115;-93
2021/05/07 00:58:56;;;;;;;1999.90;999.90;;;5.70;99.90;;;;;;4940000;29;20048;-93
2021/05/07 01:01:24;;;;;;;1999.90;999.90;;;5.70;99.90;;;;;;4939804;29;20055;-93
2021/05/07 01:03:51;;;;;;;1999.90;999.90;;;5.70;99.90;;;;;;4942863;29;20527;-92
2021/05/07 01:06:19;;;;;;;1999.90;999.90;;;5.60;99.90;;;;;;4939544;29;20076;-93
2021/05/07 01:08:46;;;;;;;1999.90;999.90;;;5.60;99.90;;;;;;4928214;29;20047;-92
2021/05/07 01:11:13;;;;;;;1999.90;999.90;;;5.60;99.90;;;;;;4927033;29;20058;-93
2021/05/07 01:13:40;;;;;;;1999.90;999.90;;;5.60;99.90;;;;;;4935177;29;20055;-93
2021/05/07 01:16:09;;;;;;;1999.90;999.90;;;5.70;99.90;;;;;;4939192;29;20110;-93
2021/05/07 01:18:37;;;;;;;1999.90;999.90;;;5.60;99.90;;;;;;4939255;29;20055;-93
2021/05/07 01:29:18;;;;;;;;;;;5.60;99.90;;;;;;4958666;29;20063;-96
2021/05/07 01:40:35;;;;;;;1999.90;999.90;;;5.70;99.90;;;;;;4911609;29;20135;-92
2021/05/07 01:43:03;;;;;;;1999.90;999.90;;;5.70;99.90;;;;;;4918044;29;20056;-93
2021/05/07 01:45:32;;;;;;;1999.90;999.90;;;5.70;99.90;;;;;;4918338;29;20048;-92
2021/05/07 01:47:59;;;;;;;1999.90;999.90;;;5.70;99.90;;;;;;4919687;29;20044;-92
2021/05/07 01:50:29;;;;;;;1999.90;999.90;;;5.80;99.90;;;;;;4919807;29;20083;-94
2021/05/07 01:52:57;;;;;;;1999.90;999.90;;;5.80;99.90;;;;;;4919167;29;20111;-92
2021/05/07 01:55:26;;;;;;;1999.90;999.90;;;5.80;99.90;;;;;;4919390;29;20071;-92
2021/05/07 01:57:54;;;;;;;1999.90;999.90;;;5.80;99.90;;;;;;4919210;29;20136;-92
2021/05/07 02:00:23;;;;;;;1999.90;999.90;;;5.80;99.90;;;;;;4919441;29;20551;-93
2021/05/07 02:02:51;;;;;;;1999.90;999.90;;;5.90;99.90;;;;;;4920034;29;20056;-92
2021/05/07 02:05:19;;;;;;;1999.90;999.90;;;5.80;99.90;;;;;;4918483;29;20131;-91
2021/05/07 02:07:47;;;;;;;1999.90;999.90;;;5.90;99.90;;;;;;4919701;29;20415;-91
2021/05/07 02:10:18;;;;;;;1999.90;999.90;;;5.90;99.90;;;;;;4931813;29;20056;-92
2021/05/07 02:12:45;;;;;;;1999.90;999.90;;;5.90;99.90;;;;;;4919440;29;20111;-92
2021/05/07 02:15:17;;;;;;;1999.90;999.90;;;5.90;99.90;;;;;;4917977;29;20060;-92
2021/05/07 02:17:44;;;;;;;1999.90;999.90;;;6.00;99.90;;;;;;4916067;29;20100;-92
2021/05/07 02:20:13;;;;;;;1999.90;999.90;;;6.00;99.90;;;;;;4928964;29;20074;-92
2021/05/07 02:22:41;;;;;;;1999.90;999.90;;;6.00;99.90;;;;;;4919173;29;20058;-93
2021/05/07 02:25:10;;;;;;;1999.90;999.90;;;6.10;99.90;;;;;;4917370;29;20055;-92
2021/05/07 02:27:38;;;;;;;1999.90;999.90;;;6.00;99.90;;;;;;4930725;29;20076;-92
2021/05/07 02:30:07;;;;;;;1999.90;999.90;;;6.10;99.90;;;;;;4921925;29;20055;-92
2021/05/07 02:32:36;;;;;;;1999.90;999.90;;;6.10;99.90;;;;;;4919581;29;20131;-92
2021/05/07 02:35:06;;;;;;;1999.90;999.90;;;6.10;99.90;;;;;;4926887;29;20527;-93
2021/05/07 02:37:33;;;;;;;1999.90;999.90;;;6.10;99.90;;;;;;4913947;29;20076;-92
2021/05/07 02:40:01;;;;;;;1999.90;999.90;;;6.10;99.90;;;;;;4921524;29;20500;-92
2021/05/07 02:42:28;;;;;;;1999.90;999.90;;;6.10;99.90;;;;;;4919239;29;20086;-92
2021/05/07 02:44:55;;;;;;;1999.90;999.90;;;6.10;99.90;;;;;;4940824;29;20054;-93
2021/05/07 02:47:22;;;;;;;1999.90;999.90;;;6.00;99.90;;;;;;4941140;29;20055;-93
2021/05/07 02:49:50;;;;;;;1999.90;999.90;;;5.90;99.90;;;;;;4940785;29;20079;-93
2021/05/07 02:52:18;;;;;;;1999.90;999.90;;;5.90;99.90;;;;;;4913875;29;20064;-92
2021/05/07 02:54:46;;;;;;;1999.90;999.90;;;5.90;99.90;;;;;;4913452;29;20076;-92
2021/05/07 02:57:13;;;;;;;1999.90;999.90;;;6.00;99.90;;;;;;4932956;29;20116;-92
2021/05/07 02:59:40;;;;;;;1999.90;999.90;;;6.00;99.90;;;;;;4937039;29;20024;-92
2021/05/07 03:02:07;;;;;;;1999.90;999.90;;;6.00;99.90;;;;;;4920036;29;20056;-92
2021/05/07 03:04:35;;;;;;;1999.90;999.90;;;6.00;99.90;;;;;;4937103;29;20040;-92
2021/05/07 03:07:03;;;;;;;1999.90;999.90;;;5.90;99.90;;;;;;4940970;29;20048;-92
2021/05/07 03:09:30;;;;;;;1999.90;999.90;;;5.90;99.90;;;;;;4946099;29;20040;-92
2021/05/07 03:11:57;;;;;;;1999.90;999.90;;;5.90;99.90;;;;;;4931996;29;20044;-93
2021/05/07 03:14:25;;;;;;;1999.90;999.90;;;5.80;99.90;;;;;;4932010;29;20491;-92
2021/05/07 03:16:52;;;;;;;1999.90;999.90;;;5.80;99.90;;;;;;4929630;29;20052;-92
2021/05/07 03:19:20;;;;;;;1999.90;999.90;;;5.70;99.90;;;;;;4915697;29;20143;-93
2021/05/07 03:21:47;;;;;;;1999.90;999.90;;;5.60;99.90;;;;;;4915109;29;20131;-92
2021/05/07 03:24:15;;;;;;;1999.90;999.90;;;5.60;99.90;;;;;;4921053;29;20139;-94
2021/05/07 03:26:42;;;;;;;1999.90;999.90;;;5.60;99.90;;;;;;4922927;29;20060;-93
2021/05/07 03:29:10;;;;;;;1999.90;999.90;;;5.70;99.90;;;;;;4919265;29;20130;-94
2021/05/07 03:31:37;;;;;;;1999.90;999.90;;;5.70;99.90;;;;;;4921612;29;20106;-93
2021/05/07 03:34:05;;;;;;;1999.90;999.90;;;5.80;99.90;;;;;;4915916;29;20384;-93
2021/05/07 03:36:32;;;;;;;1999.90;999.90;;;5.80;99.90;;;;;;4916668;29;20068;-94
2021/05/07 03:39:06;;;;;;;1999.90;999.90;;;5.90;99.90;;;;;;4925563;29;20138;-95
2021/05/07 03:41:40;;;;;;;1999.90;999.90;;;5.90;99.90;;;;;;4937935;29;20355;-95
2021/05/07 03:44:09;;;;;;;1999.90;999.90;;;5.90;99.90;;;;;;4937563;29;20059;-95
2021/05/07 03:46:39;;;;;;;1999.90;999.90;;;5.80;99.90;;;;;;4937655;29;20075;-94
2021/05/07 03:49:11;;;;;;;1999.90;999.90;;;5.80;99.90;;;;;;4937592;29;20062;-94
2021/05/07 03:51:44;;;;;;;1999.90;999.90;;;5.80;99.90;;;;;;4937312;29;20490;-94
2021/05/07 03:54:15;;;;;;;1999.90;999.90;;;5.80;99.90;;;;;;4937836;29;20052;-94
2021/05/07 03:56:46;;;;;;;1999.90;999.90;;;5.80;99.90;;;;;;4937306;29;20103;-94
2021/05/07 03:59:13;;;;;;;1999.90;999.90;;;5.70;99.90;;;;;;4938031;29;20111;-94
2021/05/07 04:01:41;;;;;;;1999.90;999.90;;;5.70;99.90;;;;;;4937861;29;20464;-94
2021/05/07 04:04:09;;;;;;;1999.90;999.90;;;5.60;99.90;;;;;;4937402;29;20058;-93
2021/05/07 04:06:36;;;;;;;1999.90;999.90;;;5.60;99.90;;;;;;4937852;29;20048;-94
2021/05/07 04:09:06;;;;;;;1999.90;999.90;;;5.50;99.90;;;;;;4938262;29;20051;-94
2021/05/07 04:11:37;;;;;;;1999.90;999.90;;;5.50;99.90;;;;;;4941324;29;20502;-93
2021/05/07 04:14:08;;;;;;;1999.90;999.90;;;5.60;99.90;;;;;;4941357;29;20384;-93
2021/05/07 04:16:35;;;;;;;1999.90;999.90;;;5.50;99.90;;;;;;4927622;29;20052;-94
2021/05/07 04:19:03;;;;;;;1999.90;999.90;;;5.40;99.90;;;;;;4922672;29;20056;-93
2021/05/07 04:21:30;;;;;;;1999.90;999.90;;;5.40;99.90;;;;;;4922473;29;20143;-93
2021/05/07 04:23:58;;;;;;;1999.90;999.90;;;5.40;99.90;;;;;;4922573;29;20048;-93
2021/05/07 04:26:25;;;;;;;1999.90;999.90;;;5.50;99.90;;;;;;4921730;29;20056;-93
2021/05/07 04:28:52;;;;;;;1999.90;999.90;;;5.60;99.90;;;;;;4922034;29;20055;-93
2021/05/07 04:31:20;;;;;;;1999.90;999.90;;;5.60;99.90;;;;;;4922082;29;20119;-93
2021/05/07 04:33:48;;;;;;;1999.90;999.90;;;5.50;99.90;;;;;;4921822;29;20603;-93
2021/05/07 04:36:15;;;;;;;1999.90;999.90;;;5.50;99.90;;;;;;4921714;29;20107;-94
2021/05/07 04:38:42;;;;;;;1999.90;999.90;;;5.50;99.90;;;;;;4926276;29;20557;-94
2021/05/07 04:41:09;;;;;;;1999.90;999.90;;;5.40;99.90;;;;;;4941127;29;20078;-93
2021/05/07 04:43:36;;;;;;;1999.90;999.90;;;5.40;99.90;;;;;;4914404;29;20080;-93
2021/05/07 04:46:04;;;;;;;1999.90;999.90;;;5.40;99.90;;;;;;4902752;29;20052;-95
2021/05/07 04:48:32;;;;;;;1999.90;999.90;;;5.40;99.90;;;;;;4903569;29;20056;-94
2021/05/07 04:51:02;;;;;;;1999.90;999.90;;;5.30;99.90;;;;;;4907179;29;20067;-93
2021/05/07 04:53:29;;;;;;;1999.90;999.90;;;5.30;99.90;;;;;;4931700;29;20055;-93
2021/05/07 04:55:57;;;;;;;1999.90;999.90;;;5.20;99.90;;;;;;4939129;29;20051;-93
2021/05/07 04:58:24;;;;;;;1999.90;999.90;;;5.20;99.90;;;;;;4921722;29;20055;-94
2021/05/07 05:00:51;;;;;;;1999.90;999.90;;;5.10;99.90;;;;;;4921252;29;20056;-93
2021/05/07 05:03:18;;;;;;;1999.90;999.90;;;5.10;99.90;;;;;;4927505;29;20060;-94
2021/05/07 05:05:46;;;;;;;1999.90;999.90;;;5.00;99.90;;;;;;4910338;29;20059;-94
2021/05/07 05:08:20;;;;;;;1999.90;999.90;;;4.90;99.90;;;;;;4921349;29;20475;-93
2021/05/07 05:10:48;;;;;;;1999.90;999.90;;;4.90;99.90;;;;;;4921049;29;20135;-94
2021/05/07 05:13:15;;;;;;;1999.90;999.90;;;4.90;99.90;;;;;;4934575;29;20119;-93
2021/05/07 05:15:43;;;;;;;1999.90;999.90;;;4.90;99.90;;;;;;4940209;29;20059;-93
2021/05/07 05:18:10;;;;;;;1999.90;999.90;;;4.90;99.90;;;;;;4921951;29;20053;-95
2021/05/07 05:20:37;;;;;;;1999.90;999.90;;;5.00;99.90;;;;;;4919921;29;20060;-94
2021/05/07 05:23:06;;;;;;;1999.90;999.90;;;5.10;99.90;;;;;;4921029;29;20052;-94
2021/05/07 05:25:36;;;;;;;1999.90;999.90;;;5.20;99.90;;;;;;4921078;29;20138;-94
2021/05/07 05:28:03;;;;;;;1999.90;999.90;;;5.20;99.90;;;;;;4921238;29;20070;-93
2021/05/07 05:30:31;;;;;;;1999.90;999.90;;;5.20;99.90;;;;;;4933145;29;20055;-93
2021/05/07 05:32:58;;;;;;;1999.90;999.90;;;5.20;99.90;;;;;;4935428;29;20063;-95
2021/05/07 05:35:25;;;;;;;1999.90;999.90;;;5.30;99.90;;;;;;4920579;29;20506;-93
2021/05/07 05:37:53;;;;;;;1999.90;999.90;;;5.30;99.90;;;;;;4920780;29;20143;-93
2021/05/07 05:40:25;;;;;;;1999.90;999.90;;;5.30;99.90;;;;;;4928752;29;20406;-93
2021/05/07 05:42:53;;;;;;;1999.90;999.90;;;5.30;99.90;;;;;;4920535;29;20139;-94
2021/05/07 05:45:22;;;;;;;1999.90;999.90;;;5.40;99.90;;;;;;4920654;29;20051;-94
2021/05/07 05:47:59;;;;;;;1999.90;999.90;;;5.30;99.90;;;;;;4920867;29;20111;-94
2021/05/07 05:50:26;;;;;;;1999.90;999.90;;;5.40;99.90;;;;;;4911954;29;20067;-94
2021/05/07 05:52:54;;;;;;;1999.90;999.90;;;5.40;99.90;;;;;;4916087;29;20056;-95
2021/05/07 05:55:22;;;;;;;1999.90;999.90;;;5.40;99.90;;;;;;4920689;29;20387;-94
2021/05/07 05:57:53;;;;;;;1999.90;999.90;;;5.40;99.90;;;;;;4920536;29;20066;-94
2021/05/07 06:00:22;;;;;;;1999.90;999.90;;;5.40;99.90;;;;;;4920471;29;20439;-94
2021/05/07 06:02:50;;;;;;;1999.90;999.90;;;5.40;99.90;;;;;;4908992;29;20071;-94
2021/05/07 06:05:20;;;;;;;1999.90;999.90;;;5.30;99.90;;;;;;4918672;29;20380;-94
2021/05/07 06:07:50;;;;;;;1999.90;999.90;;;5.40;99.90;;;;;;4909157;29;20064;-95
2021/05/07 06:10:19;;;;;;;1999.90;999.90;;;5.40;99.90;;;;;;4901261;29;20506;-94
2021/05/07 06:12:48;;;;;;;1999.90;999.90;;;5.40;99.90;;;;;;4901370;29;20062;-95
2021/05/07 06:15:20;;;;;;;1999.90;999.90;;;5.50;99.90;;;;;;4900997;29;20102;-93
2021/05/07 06:17:50;;;;;;;1999.90;999.90;;;5.50;99.90;;;;;;4901813;29;20062;-93
2021/05/07 06:20:19;;;;;;;1999.90;999.90;;;5.50;99.90;;;;;;4900781;29;20057;-94
2021/05/07 06:22:53;;;;;;;1999.90;999.90;;;5.60;99.90;;;;;;4901336;29;20049;-94
2021/05/07 06:25:25;;;;;;;1999.90;999.90;;;5.70;99.90;;;;;;4900734;29;20048;-93
2021/05/07 06:27:53;;;;;;;1999.90;999.90;;;5.80;99.90;;;;;;4917687;29;20062;-94
2021/05/07 06:30:29;;;;;;;1999.90;999.90;;;5.90;99.90;;;;;;4938962;29;20051;-94
2021/05/07 06:33:06;;;;;;;;;;;5.90;99.90;;;;;;4938764;29;20092;-95
2021/05/07 06:35:33;;;;;;;1999.90;999.90;;;6.00;99.90;;;;;;4938978;29;19923;-95
2021/05/07 06:38:08;;;;;;;1999.90;999.90;;;6.00;99.90;;;;;;4939205;29;20139;-93
2021/05/07 06:40:36;;;;;;;1999.90;999.90;;;6.20;99.90;;;;;;4938604;29;20059;-94
2021/05/07 06:43:33;;;;;;;1999.90;999.90;;;6.20;99.90;;;;;;4906800;29;20052;-94
2021/05/07 06:46:03;;;;;;;1999.90;999.90;;;6.30;99.90;;;;;;4919702;29;20472;-93
2021/05/07 06:48:32;;;;;;;1999.90;999.90;;;6.40;99.90;;;;;;4919398;29;20056;-94
2021/05/07 06:50:59;;;;;;;1999.90;999.90;;;6.50;99.90;;;;;;4922945;29;20051;-95
2021/05/07 06:53:27;;;;;;;1999.90;999.90;;;6.60;99.90;;;;;;4920586;29;20062;-93
2021/05/07 06:55:54;;;;;;;1999.90;999.90;;;6.60;99.90;;;;;;4919291;29;20536;-92
2021/05/07 06:58:40;;;;;;;1999.90;999.90;;;6.70;99.90;;;;;;4919309;29;20515;-94
2021/05/07 07:01:11;;;;;;;1999.90;999.90;;;6.80;99.90;;;;;;4919676;29;20048;-93
2021/05/07 07:03:39;;;;;;;1999.90;999.90;;;6.90;99.90;;;;;;4919595;29;20491;-94
2021/05/07 07:06:06;;;;;;;1999.90;999.90;;;6.90;99.90;;;;;;4919060;29;20048;-94
2021/05/07 07:08:37;;;;;;;1999.90;999.90;;;7.00;99.90;;;;;;4918903;29;20060;-93
2021/05/07 07:11:12;;;;;;;1999.90;999.90;;;7.00;99.90;;;;;;4918639;29;20123;-94
2021/05/07 07:13:40;;;;;;;1999.90;999.90;;;7.10;99.90;;;;;;4923370;29;20055;-93
2021/05/07 07:16:14;;;;;;;1999.90;999.90;;;7.00;99.90;;;;;;4918789;29;20555;-94
2021/05/07 07:18:51;;;;;;;1999.90;999.90;;;7.10;99.90;;;;;;4918451;29;20530;-93
2021/05/07 07:21:20;;;;;;;1999.90;999.90;;;7.30;99.90;;;;;;4920331;29;20058;-94
2021/05/07 07:23:48;;;;;;;1999.90;999.90;;;7.30;99.90;;;;;;4926748;29;20115;-93
2021/05/07 07:26:15;;;;;;;1999.90;999.90;;;7.40;99.90;;;;;;4920443;29;20052;-94
2021/05/07 07:28:47;;;;;;;1999.90;999.90;;;7.50;99.90;;;;;;4918631;29;20064;-95
2021/05/07 07:31:14;;;;;;;1999.90;999.90;;;7.70;99.90;;;;;;4919171;29;20059;-94
2021/05/07 07:33:42;;;;;;;1999.90;999.90;;;7.80;99.90;;;;;;4918702;29;20107;-94
2021/05/07 07:36:28;;;;;;;1999.90;999.90;;;7.90;99.90;;;;;;4918378;29;20048;-94
2021/05/07 07:39:02;;;;;;;1999.90;999.90;;;8.00;99.90;;;;;;4910953;29;20112;-93
2021/05/07 07:41:33;;;;;;;1999.90;999.90;;;8.00;99.90;;;;;;4922374;29;20091;-94
2021/05/07 07:44:13;;;;;;;1999.90;999.90;;;8.00;99.90;;;;;;4917493;29;20056;-94
2021/05/07 09:02:06;;;;;;;1999.90;999.90;;;9.90;96.30;;;;;;5001560;23;20091;-93
2021/05/07 09:04:33;;;;;;;1999.90;999.90;;;10.00;96.70;;;;;;4913667;29;20084;-93
2021/05/07 09:07:11;;;;;;;1999.90;999.90;;;10.10;95.60;;;;;;4921208;29;20072;-93
2021/05/07 09:09:49;;;;;;;1999.90;999.90;;;10.00;95.40;;;;;;4921080;29;20083;-93
2021/05/07 09:12:25;;;;;;;1999.90;999.90;;;9.90;95.60;;;;;;4920787;29;20483;-93
2021/05/07 09:14:55;;;;;;;1999.90;999.90;;;10.00;95.50;;;;;;4920481;29;20056;-93
2021/05/07 09:17:29;;;;;;;1999.90;999.90;;;10.10;95.40;;;;;;4920998;29;20400;-92
2021/05/07 09:20:07;;;;;;;1999.90;999.90;;;10.10;95.90;;;;;;4921152;29;20138;-93
2021/05/07 09:22:36;;;;;;;1999.90;999.90;;;10.20;95.50;;;;;;4922460;29;20051;-93
2021/05/07 09:25:10;;;;;;;1999.90;999.90;;;10.40;94.80;;;;;;4923510;29;20139;-93
2021/05/07 09:27:38;;;;;;;1999.90;999.90;;;10.40;94.70;;;;;;4904704;29;20055;-92
2021/05/07 09:30:11;;;;;;;1999.90;999.90;;;10.50;94.70;;;;;;4919112;29;20311;-93
2021/05/07 09:32:52;;;;;;;1999.90;999.90;;;10.60;94.70;;;;;;4925709;29;20131;-93
2021/05/07 09:41:47;;;;;;;1999.90;999.90;;;11.10;93.50;;;;;;4923707;29;21000;-94
2021/05/07 09:44:17;;;;;;;1999.90;999.90;;;11.00;93.60;;;;;;4920207;29;20551;-92
2021/05/07 09:46:45;;;;;;;1999.90;999.90;;;10.90;93.30;;;;;;4920025;29;20143;-93
2021/05/07 09:49:26;;;;;;;1999.90;999.90;;;11.00;94.10;;;;;;4917000;29;20483;-93
2021/05/07 09:51:54;;;;;;;1999.90;999.90;;;11.20;94.20;;;;;;4919859;29;20107;-94
2021/05/07 09:54:38;;;;;;;1999.90;999.90;;;11.30;94.50;;;;;;4920071;29;20052;-93
2021/05/07 09:57:06;;;;;;;1999.90;999.90;;;11.40;93.70;;;;;;4919962;29;20047;-93
2021/05/07 09:59:48;;;;;;;1999.90;999.90;;;11.40;93.20;;;;;;4920054;29;20402;-93
2021/05/07 10:02:16;;;;;;;1999.90;999.90;;;11.40;93.60;;;;;;4919619;29;20060;-94
2021/05/07 10:04:46;;;;;;;1999.90;999.90;;;11.40;91.80;;;;;;4919736;29;20419;-92
2021/05/07 10:07:15;;;;;;;1999.90;999.90;;;11.40;92.60;;;;;;4919138;29;20052;-93
2021/05/07 10:09:43;;;;;;;1999.90;999.90;;;11.50;92.10;;;;;;5213773;23;20131;-94
2021/05/07 10:12:14;;;;;;;1999.90;999.90;;;11.60;91.40;;;;;;4939751;29;20134;-93
2021/05/07 10:14:44;;;;;;;1999.90;999.90;;;11.30;91.00;;;;;;4920330;29;20060;-94
2021/05/07 10:17:12;;;;;;;1999.90;999.90;;;11.50;89.80;;;;;;4920757;29;20523;-94
2021/05/07 10:19:41;;;;;;;1999.90;999.90;;;11.40;89.10;;;;;;4919935;29;20072;-94
2021/05/07 10:22:45;;;;;;;1999.90;999.90;;;11.50;90.90;;;;;;4938457;29;20044;-94
2021/05/07 10:25:15;;;;;;;1999.90;999.90;;;11.60;91.30;;;;;;4930561;29;20048;-93
2021/05/07 10:46:33;;;;;;;1999.90;999.90;;;11.80;89.00;;;;;;5769756;23;20055;-93
2021/05/07 10:49:03;;;;;;;1999.90;999.90;;;11.80;90.00;;;;;;4942942;29;20060;-93
2021/05/07 10:51:32;;;;;;;1999.90;999.90;;;11.70;89.50;;;;;;4938094;29;20146;-94
2021/05/07 10:54:11;;;;;;;1999.90;999.90;;;11.60;88.30;;;;;;4937971;29;20058;-93
2021/05/07 10:56:39;;;;;;;1999.90;999.90;;;11.60;83.80;;;;;;4943352;29;20056;-94
2021/05/07 10:59:17;;;;;;;1999.90;999.90;;;11.70;86.80;;;;;;4938257;29;20083;-93
2021/05/07 11:02:00;;;;;;;1999.90;999.90;;;11.80;87.60;;;;;;4938185;29;20062;-93
2021/05/07 11:04:28;;;;;;;1999.90;999.90;;;11.90;87.50;;;;;;4938017;29;20139;-93
2021/05/07 11:07:03;;;;;;;1999.90;999.90;;;11.80;86.10;;;;;;4939879;29;20498;-93
2021/05/07 11:09:34;;;;;;;;;;;11.90;88.70;;;;;;4946302;29;20065;-94
2021/05/07 11:12:09;;;;;;;1999.90;999.90;;;11.90;85.40;;;;;;4937277;29;20378;-92
2021/05/07 11:14:45;;;;;;;1999.90;999.90;;;12.00;80.80;;;;;;4941233;29;20052;-96
2021/05/07 11:17:18;;;;;;;1999.90;999.90;;;12.10;82.10;;;;;;4949491;29;20044;-94
2021/05/07 11:19:47;;;;;;;1999.90;999.90;;;12.20;82.30;;;;;;4939623;29;20127;-96
2021/05/07 11:22:16;;;;;;;1999.90;999.90;;;12.00;78.20;;;;;;4941792;29;20066;-93
2021/05/07 11:24:49;;;;;;;1999.90;999.90;;;12.00;79.00;;;;;;4951029;29;20060;-96
2021/05/07 11:27:21;;;;;;;1999.90;999.90;;;11.90;80.70;;;;;;4951196;29;20058;-96
2021/05/07 11:30:11;;;;;;;1999.90;999.90;;;11.90;80.90;;;;;;5257109;23;20067;-92
2021/05/07 11:32:39;;;;;;;1999.90;999.90;;;11.80;81.60;;;;;;4955206;28;20114;-93
2021/05/07 11:35:12;;;;;;;1999.90;999.90;;;11.80;82.70;;;;;;4949251;29;20065;-93
2021/05/07 11:37:42;;;;;;;1999.90;999.90;;;11.90;83.80;;;;;;4940900;28;20054;-93
2021/05/07 11:40:12;;;;;;;1999.90;999.90;;;12.00;84.00;;;;;;4948173;28;20051;-93
2021/05/07 11:42:42;;;;;;;1999.90;999.90;;;12.10;83.20;;;;;;4953949;28;20048;-93
2021/05/07 11:45:11;;;;;;;1999.90;999.90;;;12.00;82.30;;;;;;4953912;28;20071;-93
2021/05/07 12:17:04;;;;;;;1999.90;999.90;;;12.20;83.70;;;;;;5228315;23;1205380;-93
2021/05/07 12:19:38;;;;;;;1999.90;999.90;;;12.30;79.70;;;;;;4958513;28;20051;-95
2021/05/07 12:30:33;;;;;;;1999.90;999.90;;;12.20;81.50;;;;;;4937718;29;20442;-93
2021/05/07 12:33:13;;;;;;;1999.90;999.90;;;12.20;81.60;;;;;;4927755;29;20064;-92
2021/05/07 12:35:43;;;;;;;1999.90;999.90;;;12.30;81.60;;;;;;4937799;29;20456;-93
2021/05/07 12:38:27;;;;;;;1999.90;999.90;;;12.40;80.20;;;;;;4940407;29;20056;-93
2021/05/07 12:40:58;;;;;;;1999.90;999.90;;;12.30;80.30;;;;;;4940917;29;20048;-93
2021/05/07 12:43:27;;;;;;;1999.90;999.90;;;12.50;80.10;;;;;;4939356;29;20373;-93
2021/05/07 12:45:58;;;;;;;1999.90;999.90;;;12.80;80.20;;;;;;4948270;29;20064;-93
2021/05/07 12:48:47;;;;;;;1999.90;999.90;;;12.80;77.70;;;;;;4941172;29;20047;-93
2021/05/07 12:51:17;;;;;;;1999.90;999.90;;;12.70;77.90;;;;;;4940245;29;20115;-93
2021/05/07 12:54:06;;;;;;;1999.90;999.90;;;12.70;79.30;;;;;;4932851;29;20052;-94
2021/05/07 12:56:33;;;;;;;1999.90;999.90;;;12.80;80.90;;;;;;4939608;29;20056;-94
2021/05/07 12:59:00;;;;;;;1999.90;999.90;;;12.90;79.20;;;;;;4926188;29;20052;-93
2021/05/07 13:01:28;;;;;;;1999.90;999.90;;;13.00;80.70;;;;;;4940462;29;20074;-94
2021/05/07 13:03:59;;;;;;;1999.90;999.90;;;13.00;77.50;;;;;;4939086;29;20078;-93
2021/05/07 13:06:27;;;;;;;1999.90;999.90;;;12.90;78.90;;;;;;4930298;29;20443;-94
2021/05/07 13:08:55;;;;;;;1999.90;999.90;;;12.90;80.30;;;;;;4938277;29;20059;-93
2021/05/07 13:11:24;;;;;;;1999.90;999.90;;;12.80;81.50;;;;;;4939739;29;20051;-94
2021/05/07 13:13:53;;;;;;;1999.90;999.90;;;12.80;79.90;;;;;;4939577;29;20130;-94
2021/05/07 13:16:20;;;;;;;1999.90;999.90;;;12.70;82.20;;;;;;4925990;29;20052;-94
2021/05/07 13:18:48;;;;;;;1999.90;999.90;;;12.70;87.70;;;;;;4939332;29;20067;-93
2021/05/07 13:21:16;;;;;;;1999.90;999.90;;;12.90;86.30;;;;;;4939223;29;20058;-95
2021/05/07 13:23:47;;;;;;;1999.90;999.90;;;12.90;83.50;;;;;;4930083;29;20139;-93
2021/05/07 13:26:21;;;;;;;1999.90;999.90;;;12.80;83.10;;;;;;4925493;29;20130;-94
2021/05/07 13:28:49;;;;;;;1999.90;999.90;;;12.50;83.20;;;;;;4939774;29;20083;-93
2021/05/07 13:31:17;;;;;;;1999.90;999.90;;;12.50;84.50;;;;;;4924542;29;20100;-91
2021/05/07 13:33:46;;;;;;;1999.90;999.90;;;12.70;85.50;;;;;;4928325;29;20494;-93
2021/05/07 13:36:19;;;;;;;1999.90;999.90;;;12.70;83.20;;;;;;4934989;29;20059;-93
2021/05/07 13:38:48;;;;;;;1999.90;999.90;;;12.60;81.80;;;;;;4920418;29;20062;-93
2021/05/07 13:41:16;;;;;;;1999.90;999.90;;;12.70;86.40;;;;;;4930644;29;20062;-94
2021/05/07 13:43:43;;;;;;;1999.90;999.90;;;13.10;85.20;;;;;;4920473;29;20068;-93
2021/05/07 13:46:16;;;;;;;1999.90;999.90;;;13.30;83.90;;;;;;4919962;29;20048;-94
2021/05/07 13:48:43;;;;;;;1999.90;999.90;;;13.60;81.60;;;;;;4916613;29;20052;-93
2021/05/07 13:51:14;;;;;;;1999.90;999.90;;;13.70;81.10;;;;;;4913035;29;20115;-94
2021/05/07 13:53:50;;;;;;;1999.90;999.90;;;13.90;79.00;;;;;;4920404;29;20084;-94
2021/05/07 13:56:17;;;;;;;1999.90;999.90;;;14.30;77.20;;;;;;4925577;29;20060;-92
2021/05/07 13:58:58;;;;;;;1999.90;999.90;;;14.40;75.60;;;;;;4916344;29;20052;-94
2021/05/07 14:01:31;;;;;;;1999.90;999.90;;;14.50;76.20;;;;;;4909483;29;20067;-96
2021/05/07 14:04:18;;;;;;;1999.90;999.90;;;14.70;74.50;;;;;;4912608;29;20056;-96
2021/05/07 14:06:47;;;;;;;1999.90;999.90;;;14.60;74.10;;;;;;4910700;29;20052;-96
2021/05/07 14:09:19;;;;;;;1999.90;999.90;;;14.50;74.50;;;;;;4912303;29;20044;-96
2021/05/07 14:11:51;;;;;;;1999.90;999.90;;;14.70;74.60;;;;;;4912590;29;20527;-96
2021/05/07 14:14:20;;;;;;;1999.90;999.90;;;14.80;76.10;;;;;;4913771;29;20083;-96
2021/05/07 14:19:56;;;;;;;1999.90;999.90;;;14.50;76.00;;;;;;4911444;29;20056;-96
2021/05/07 14:22:24;;;;;;;1999.90;999.90;;;14.30;76.10;;;;;;4912844;29;20532;-96
2021/05/07 14:24:53;;;;;;;1999.90;999.90;;;14.10;77.20;;;;;;4913748;29;20121;-96
2021/05/07 14:27:43;;;;;;;1999.90;999.90;;;14.00;77.40;;;;;;4916494;29;20049;-96
2021/05/07 14:30:30;;;;;;;1999.90;999.90;;;13.80;76.40;;;;;;4925385;29;20127;-96
2021/05/07 14:33:15;;;;;;;1999.90;999.90;;;13.80;82.30;;;;;;4930261;29;20056;-96
2021/05/07 14:35:49;;;;;;;1999.90;999.90;;;14.00;79.60;;;;;;4932752;29;20052;-96
2021/05/07 14:38:24;;;;;;;1999.90;999.90;;;14.10;76.80;;;;;;4931840;29;20060;-96
2021/05/07 14:40:56;;;;;;;1999.90;999.90;;;13.80;75.50;;;;;;4928873;29;20080;-96
2021/05/07 14:43:29;;;;;;;1999.90;999.90;;;13.70;77.70;;;;;;4933114;29;20147;-96
2021/05/07 14:45:58;;;;;;;1999.90;999.90;;;13.60;77.90;;;;;;4932829;29;20056;-96
2021/05/07 14:48:30;;;;;;;1999.90;999.90;;;13.70;79.40;;;;;;4930724;29;20119;-96
2021/05/07 14:51:00;;;;;;;1999.90;999.90;;;13.90;79.90;;;;;;4929826;29;20111;-96
2021/05/07 14:53:46;;;;;;;1999.90;999.90;;;14.20;80.90;;;;;;4929270;29;20056;-96
2021/05/07 14:56:30;;;;;;;1999.90;999.90;;;14.60;77.80;;;;;;4930320;29;20067;-96
2021/05/07 14:59:15;;;;;;;1999.90;999.90;;;14.70;75.30;;;;;;4930322;29;20108;-96
2021/05/07 15:02:00;;;;;;;1999.90;999.90;;;14.40;74.00;;;;;;4930876;29;20451;-96